createdAt,value
2019-04-03T00:00:21.541Z,79.168701
2019-04-03T00:01:21.645Z,79.309082
2019-04-03T00:02:21.774Z,79.309082
2019-04-03T00:03:21.899Z,79.412842
2019-04-03T00:04:21.980Z,79.516602
2019-04-03T00:05:22.128Z,79.516602
2019-04-03T00:06:22.187Z,79.821777
2019-04-03T00:07:22.285Z,79.821777
2019-04-03T00:08:22.514Z,79.821777
2019-04-03T00:09:21.518Z,79.821777
2019-04-03T00:10:22.622Z,80.029297
2019-04-03T00:11:21.746Z,80.029297
2019-04-03T00:12:21.903Z,79.925537
2019-04-03T00:13:22.051Z,80.029297
2019-04-03T00:14:22.153Z,79.821777
2019-04-03T00:15:22.259Z,79.620361
2019-04-03T00:16:22.364Z,79.718018
2019-04-03T00:17:22.482Z,79.821777
2019-04-03T00:18:22.682Z,79.620361
2019-04-03T00:19:22.716Z,79.821777
2019-04-03T00:20:22.906Z,79.925537
2019-04-03T00:21:23.152Z,80.029297
2019-04-03T00:22:23.002Z,80.029297
2019-04-03T00:23:23.142Z,80.133057
2019-04-03T00:24:23.265Z,80.133057
2019-04-03T00:25:23.444Z,80.133057
2019-04-03T00:26:23.376Z,80.133057
2019-04-03T00:27:23.404Z,80.133057
2019-04-03T00:28:23.529Z,80.438232
2019-04-03T00:29:23.616Z,80.230713
2019-04-03T00:30:23.705Z,80.133057
2019-04-03T00:31:24.008Z,80.029297
2019-04-03T00:32:23.919Z,80.029297
2019-04-03T00:33:24.040Z,80.029297
2019-04-03T00:34:25.143Z,80.133057
2019-04-03T00:35:24.244Z,80.230713
2019-04-03T00:36:24.340Z,80.438232
2019-04-03T00:37:24.432Z,80.230713
2019-04-03T00:38:24.722Z,80.438232
2019-04-03T00:39:24.900Z,80.334473
2019-04-03T00:40:24.965Z,80.438232
2019-04-03T00:41:25.161Z,80.541992
2019-04-03T00:42:25.067Z,80.883789
2019-04-03T00:43:25.368Z,80.883789
2019-04-03T00:44:25.162Z,80.682373
2019-04-03T00:45:25.241Z,80.682373
2019-04-03T00:46:25.401Z,80.987549
2019-04-03T00:47:25.868Z,81.091309
2019-04-03T00:48:26.093Z,81.195068
2019-04-03T00:49:26.444Z,81.091309
2019-04-03T00:50:26.868Z,81.195068
2019-04-03T00:51:27.392Z,80.987549
2019-04-03T00:52:27.529Z,81.091309
2019-04-03T00:53:27.617Z,81.091309
2019-04-03T00:54:26.768Z,81.396484
2019-04-03T00:55:26.912Z,81.396484
2019-04-03T00:56:26.819Z,81.604004
2019-04-03T00:57:26.888Z,81.707764
2019-04-03T00:58:26.657Z,82.012939
2019-04-03T00:59:26.875Z,81.90918
2019-04-03T01:00:27.033Z,82.012939
2019-04-03T01:01:27.004Z,81.90918
2019-04-03T01:02:28.180Z,81.90918
2019-04-03T01:03:28.227Z,82.220459
2019-04-03T01:04:28.745Z,82.220459
2019-04-03T01:05:28.460Z,82.525635
2019-04-03T01:06:28.618Z,82.629395
2019-04-03T01:07:27.498Z,82.971191
2019-04-03T01:08:27.679Z,83.282471
2019-04-03T01:09:29.017Z,83.282471
2019-04-03T01:10:27.829Z,83.898926
2019-04-03T01:11:28.752Z,84.002686
2019-04-03T01:12:27.466Z,84.716797
2019-04-03T01:13:27.524Z,84.515381
2019-04-03T01:14:27.533Z,84.515381
2019-04-03T01:15:27.676Z,85.028076
2019-04-03T01:16:27.813Z,85.028076
2019-04-03T01:17:28.008Z,85.125732
2019-04-03T01:18:27.941Z,85.333252
2019-04-03T01:19:27.916Z,85.437012
2019-04-03T01:20:28.005Z,85.473633
2019-04-03T01:21:28.077Z,85.473633
2019-04-03T01:22:28.224Z,85.577393
2019-04-03T01:23:28.230Z,85.473633
2019-04-03T01:24:28.211Z,85.473633
2019-04-03T01:25:28.359Z,85.473633
2019-04-03T01:26:29.325Z,85.473633
2019-04-03T01:27:29.391Z,85.375977
2019-04-03T01:28:29.534Z,85.064697
2019-04-03T01:29:29.620Z,85.168457
2019-04-03T01:30:29.624Z,85.272217
2019-04-03T01:31:28.778Z,85.272217
2019-04-03T01:32:29.029Z,85.577393
2019-04-03T01:33:29.029Z,85.577393
2019-04-03T01:34:29.145Z,85.681152
2019-04-03T01:35:29.372Z,85.577393
2019-04-03T01:36:29.413Z,85.064697
2019-04-03T01:37:29.419Z,85.473633
2019-04-03T01:38:29.509Z,85.375977
2019-04-03T01:39:29.497Z,85.003662
2019-04-03T01:40:29.589Z,85.375977
2019-04-03T01:41:29.535Z,85.620117
2019-04-03T01:42:29.689Z,85.925293
2019-04-03T01:43:29.912Z,85.925293
2019-04-03T01:44:29.777Z,85.821533
2019-04-03T01:45:29.927Z,85.107422
2019-04-03T01:46:30.026Z,85.003662
2019-04-03T01:47:30.196Z,84.899902
2019-04-03T01:48:30.339Z,84.387207
2019-04-03T01:49:30.325Z,84.283447
2019-04-03T01:50:30.333Z,84.588623
2019-04-03T01:51:30.467Z,84.490967
2019-04-03T01:52:31.646Z,84.490967
2019-04-03T01:53:30.860Z,84.387207
2019-04-03T01:54:31.567Z,84.490967
2019-04-03T01:55:30.631Z,83.978271
2019-04-03T01:56:30.659Z,83.874512
2019-04-03T01:57:30.771Z,83.770752
2019-04-03T01:58:30.935Z,83.978271
2019-04-03T01:59:30.923Z,83.874512
2019-04-03T02:00:31.007Z,84.075928
2019-04-03T02:01:31.086Z,84.075928
2019-04-03T02:02:31.146Z,84.283447
2019-04-03T02:03:31.315Z,84.588623
2019-04-03T02:04:31.434Z,84.179688
2019-04-03T02:05:31.660Z,84.075928
2019-04-03T02:06:32.593Z,84.283447
2019-04-03T02:07:32.660Z,84.692383
2019-04-03T02:08:32.812Z,84.490967
2019-04-03T02:09:32.779Z,84.387207
2019-04-03T02:10:32.859Z,84.588623
2019-04-03T02:11:31.972Z,84.692383
2019-04-03T02:12:31.991Z,84.490967
2019-04-03T02:13:32.273Z,84.692383
2019-04-03T02:14:32.242Z,85.003662
2019-04-03T02:15:32.318Z,84.899902
2019-04-03T02:16:32.602Z,85.003662
2019-04-03T02:17:32.545Z,85.205078
2019-04-03T02:18:32.631Z,85.107422
2019-04-03T02:19:32.738Z,85.107422
2019-04-03T02:20:32.835Z,85.205078
2019-04-03T02:21:32.945Z,85.107422
2019-04-03T02:22:33.000Z,85.205078
2019-04-03T02:23:33.070Z,85.205078
2019-04-03T02:24:33.367Z,85.205078
2019-04-03T02:25:33.357Z,85.205078
2019-04-03T02:26:33.255Z,85.308838
2019-04-03T02:27:33.858Z,85.107422
2019-04-03T02:28:34.881Z,85.308838
2019-04-03T02:29:33.748Z,85.107422
2019-04-03T02:30:33.788Z,85.308838
2019-04-03T02:31:34.668Z,85.107422
2019-04-03T02:32:33.774Z,84.899902
2019-04-03T02:33:34.028Z,84.899902
2019-04-03T02:34:35.577Z,85.040283
2019-04-03T02:35:33.888Z,85.144043
2019-04-03T02:36:34.022Z,84.936523
2019-04-03T02:37:35.035Z,84.838867
2019-04-03T02:38:35.233Z,84.838867
2019-04-03T02:39:34.071Z,84.735107
2019-04-03T02:40:34.131Z,84.423828
2019-04-03T02:41:36.410Z,83.605957
2019-04-03T02:42:34.291Z,83.087158
2019-04-03T02:43:34.411Z,82.989502
2019-04-03T02:44:35.503Z,82.513428
2019-04-03T02:45:34.511Z,82.513428
2019-04-03T02:46:34.550Z,82.098389
2019-04-03T02:47:34.761Z,82.305908
2019-04-03T02:48:36.772Z,82.513428
2019-04-03T02:49:34.762Z,82.098389
2019-04-03T02:50:34.818Z,82.202148
2019-04-03T02:51:36.043Z,82.305908
2019-04-03T02:52:34.937Z,82.550049
2019-04-03T02:53:35.244Z,82.757568
2019-04-03T02:54:35.908Z,82.958984
2019-04-03T02:55:35.137Z,82.757568
2019-04-03T02:56:35.163Z,82.861328
2019-04-03T02:57:35.195Z,82.653809
2019-04-03T02:58:36.252Z,82.550049
2019-04-03T02:59:35.334Z,82.244873
2019-04-03T03:00:35.615Z,82.141113
2019-04-03T03:01:38.083Z,81.829834
2019-04-03T03:02:35.546Z,81.622314
2019-04-03T03:03:35.884Z,81.829834
2019-04-03T03:04:36.970Z,81.524658
2019-04-03T03:05:35.811Z,81.317139
2019-04-03T03:06:35.893Z,81.726074
2019-04-03T03:07:36.930Z,80.804443
2019-04-03T03:08:35.949Z,80.187988
2019-04-03T03:09:36.171Z,80.389404
2019-04-03T03:10:37.205Z,80.328369
2019-04-03T03:11:37.203Z,79.504395
2019-04-03T03:12:36.360Z,79.400635
2019-04-03T03:13:36.253Z,78.887939
2019-04-03T03:14:39.218Z,78.68042
2019-04-03T03:15:36.715Z,78.57666
2019-04-03T03:16:36.541Z,78.4729
2019-04-03T03:17:37.539Z,78.68042
2019-04-03T03:18:36.765Z,78.063965
2019-04-03T03:19:36.774Z,76.928711
2019-04-03T03:20:39.479Z,78.063965
2019-04-03T03:21:36.999Z,78.063965
2019-04-03T03:22:36.912Z,78.063965
2019-04-03T03:23:37.908Z,77.648926
2019-04-03T03:24:36.990Z,77.34375
2019-04-03T03:25:36.952Z,77.23999
2019-04-03T03:26:37.784Z,76.928711
2019-04-03T03:27:40.151Z,76.623535
2019-04-03T03:28:37.295Z,76.928711
2019-04-03T03:29:37.237Z,76.141357
2019-04-03T03:30:44.802Z,76.312256
2019-04-03T03:32:01.081Z,76.763916
2019-04-03T03:32:38.700Z,76.660156
2019-04-03T03:33:40.345Z,76.556396
2019-04-03T03:34:50.027Z,77.172852
2019-04-03T03:35:43.355Z,76.763916
2019-04-03T03:36:39.125Z,76.763916
2019-04-03T03:37:38.978Z,76.763916
2019-04-03T03:38:39.329Z,76.965332
2019-04-03T03:39:38.284Z,76.861572
2019-04-03T03:40:38.256Z,76.452637
2019-04-03T03:41:39.488Z,76.452637
2019-04-03T03:42:38.215Z,77.380371
2019-04-03T03:43:38.901Z,77.789307
2019-04-03T03:44:38.195Z,77.172852
2019-04-03T03:45:38.290Z,78.100586
2019-04-03T03:46:39.556Z,78.405762
2019-04-03T03:47:38.341Z,77.380371
2019-04-03T03:48:41.925Z,77.581787
2019-04-03T03:49:38.874Z,77.893066
2019-04-03T03:50:39.547Z,77.996826
2019-04-03T03:51:38.558Z,78.100586
2019-04-03T03:52:39.050Z,77.789307
2019-04-03T03:53:38.897Z,77.685547
2019-04-03T03:54:38.883Z,77.893066
2019-04-03T03:55:40.069Z,77.996826
2019-04-03T03:56:38.861Z,78.405762
2019-04-03T03:57:40.136Z,78.302002
2019-04-03T03:58:40.348Z,77.996826
2019-04-03T03:59:39.430Z,78.442383
2019-04-03T04:00:40.301Z,78.546143
2019-04-03T04:01:40.676Z,78.857422
2019-04-03T04:02:43.008Z,78.753662
2019-04-03T04:03:41.017Z,78.649902
2019-04-03T04:04:39.763Z,78.137207
2019-04-03T04:05:39.739Z,78.137207
2019-04-03T04:06:40.735Z,78.442383
2019-04-03T04:07:39.743Z,78.649902
2019-04-03T04:08:42.529Z,78.753662
2019-04-03T04:09:39.960Z,78.240967
2019-04-03T04:10:41.035Z,78.137207
2019-04-03T04:11:39.913Z,78.753662
2019-04-03T04:12:41.513Z,78.857422
2019-04-03T04:13:40.085Z,79.162598
2019-04-03T04:14:40.666Z,79.266357
2019-04-03T04:15:41.422Z,79.266357
2019-04-03T04:16:40.281Z,79.064941
2019-04-03T04:17:40.401Z,79.577637
2019-04-03T04:18:41.544Z,78.961182
2019-04-03T04:19:41.470Z,79.577637
2019-04-03T04:20:40.463Z,79.064941
2019-04-03T04:21:42.417Z,79.266357
2019-04-03T04:22:40.678Z,79.577637
2019-04-03T04:23:40.782Z,79.785156
2019-04-03T04:24:41.915Z,79.986572
2019-04-03T04:25:43.392Z,79.473877
2019-04-03T04:26:41.085Z,79.577637
2019-04-03T04:27:41.077Z,79.785156
2019-04-03T04:28:41.087Z,80.194092
2019-04-03T04:29:41.563Z,80.401611
2019-04-03T04:30:42.478Z,80.297852
2019-04-03T04:31:43.238Z,79.986572
2019-04-03T04:32:41.400Z,80.194092
2019-04-03T04:33:41.538Z,80.706787
2019-04-03T04:34:41.627Z,80.401611
2019-04-03T04:35:41.867Z,80.090332
2019-04-03T04:36:42.706Z,79.785156
2019-04-03T04:37:42.814Z,79.986572
2019-04-03T04:38:42.928Z,80.090332
2019-04-03T04:39:42.138Z,80.438232
2019-04-03T04:40:42.065Z,80.609131
2019-04-03T04:41:42.176Z,80.914307
2019-04-03T04:42:42.286Z,80.401611
2019-04-03T04:43:42.386Z,80.505371
2019-04-03T04:44:42.499Z,80.609131
2019-04-03T04:45:43.213Z,80.505371
2019-04-03T04:46:44.636Z,80.609131
2019-04-03T04:47:45.252Z,80.706787
2019-04-03T04:48:42.831Z,80.810547
2019-04-03T04:49:43.200Z,81.329346
2019-04-03T04:50:43.055Z,81.945801
2019-04-03T04:51:44.177Z,82.049561
2019-04-03T04:52:44.448Z,82.250977
2019-04-03T04:53:43.404Z,82.562256
2019-04-03T04:54:43.483Z,82.354736
2019-04-03T04:55:43.604Z,82.15332
2019-04-03T04:56:43.752Z,81.945801
2019-04-03T04:57:43.846Z,82.049561
2019-04-03T04:58:43.971Z,81.945801
2019-04-03T04:59:45.130Z,82.049561
2019-04-03T05:00:44.770Z,81.842041
2019-04-03T05:01:44.188Z,81.945801
2019-04-03T05:02:44.165Z,81.945801
2019-04-03T05:03:44.265Z,81.329346
2019-04-03T05:04:44.541Z,81.329346
2019-04-03T05:05:45.680Z,81.530762
2019-04-03T05:06:45.618Z,81.634521
2019-04-03T05:07:44.829Z,80.297852
2019-04-03T05:08:44.849Z,80.914307
2019-04-03T05:09:44.991Z,81.018066
2019-04-03T05:10:45.127Z,80.914307
2019-04-03T05:11:45.222Z,80.810547
2019-04-03T05:12:45.702Z,80.914307
2019-04-03T05:13:46.757Z,81.121826
2019-04-03T05:14:46.805Z,81.225586
2019-04-03T05:15:45.675Z,81.634521
2019-04-03T05:16:45.807Z,81.634521
2019-04-03T05:17:46.037Z,81.427002
2019-04-03T05:18:47.129Z,81.225586
2019-04-03T05:19:48.720Z,81.225586
2019-04-03T05:20:46.447Z,81.842041
2019-04-03T05:21:46.453Z,81.530762
2019-04-03T05:22:46.481Z,81.427002
2019-04-03T05:23:46.571Z,81.427002
2019-04-03T05:24:47.670Z,81.427002
2019-04-03T05:25:47.766Z,81.634521
2019-04-03T05:26:47.863Z,81.427002
2019-04-03T05:27:46.977Z,81.427002
2019-04-03T05:28:54.526Z,81.427002
2019-04-03T05:29:47.194Z,81.121826
2019-04-03T05:30:47.438Z,81.018066
2019-04-03T05:31:47.377Z,80.914307
2019-04-03T05:32:47.591Z,81.018066
2019-04-03T05:33:47.610Z,80.810547
2019-04-03T05:34:47.959Z,80.609131
2019-04-03T05:35:47.853Z,80.810547
2019-04-03T05:36:48.540Z,80.914307
2019-04-03T05:37:48.940Z,80.706787
2019-04-03T05:38:48.341Z,80.609131
2019-04-03T05:39:48.477Z,80.706787
2019-04-03T05:40:48.359Z,81.121826
2019-04-03T05:41:48.505Z,81.225586
2019-04-03T05:42:48.591Z,81.225586
2019-04-03T05:43:49.683Z,81.225586
2019-04-03T05:44:49.833Z,80.810547
2019-04-03T05:45:48.784Z,80.810547
2019-04-03T05:46:48.891Z,80.609131
2019-04-03T05:47:48.987Z,80.401611
2019-04-03T05:48:49.095Z,80.297852
2019-04-03T05:49:51.184Z,80.401611
2019-04-03T05:50:49.565Z,80.194092
2019-04-03T05:51:49.460Z,80.194092
2019-04-03T05:52:49.556Z,80.090332
2019-04-03T05:53:49.717Z,80.401611
2019-04-03T05:54:49.873Z,80.810547
2019-04-03T05:55:49.850Z,81.018066
2019-04-03T05:56:51.561Z,81.018066
2019-04-03T05:57:50.123Z,81.121826
2019-04-03T05:58:55.864Z,81.634521
2019-04-03T05:59:59.406Z,82.971191
2019-04-03T06:01:03.081Z,82.666016
2019-04-03T06:01:51.338Z,82.458496
2019-04-03T06:02:53.044Z,82.873535
2019-04-03T06:03:50.537Z,83.69751
2019-04-03T06:04:50.600Z,83.795166
2019-04-03T06:05:50.828Z,83.69751
2019-04-03T06:06:50.752Z,84.106445
2019-04-03T06:07:50.737Z,83.898926
2019-04-03T06:08:51.857Z,84.417725
2019-04-03T06:09:51.877Z,84.967041
2019-04-03T06:10:50.930Z,85.070801
2019-04-03T06:11:52.815Z,85.27832
2019-04-03T06:12:51.007Z,86.309814
2019-04-03T06:13:51.028Z,86.413574
2019-04-03T06:14:51.058Z,86.16333
2019-04-03T06:15:52.619Z,86.05957
2019-04-03T06:16:51.211Z,86.05957
2019-04-03T06:17:52.791Z,85.858154
2019-04-03T06:18:51.389Z,85.961914
2019-04-03T06:19:51.515Z,86.05957
2019-04-03T06:20:51.736Z,85.754395
2019-04-03T06:21:51.677Z,85.650635
2019-04-03T06:22:51.995Z,85.443115
2019-04-03T06:23:52.618Z,85.858154
2019-04-03T06:24:51.829Z,86.05957
2019-04-03T06:25:51.937Z,86.37085
2019-04-03T06:26:52.061Z,86.16333
2019-04-03T06:27:52.184Z,85.754395
2019-04-03T06:28:52.301Z,85.443115
2019-04-03T06:29:54.999Z,85.443115
2019-04-03T06:30:54.173Z,86.05957
2019-04-03T06:31:52.507Z,86.474609
2019-04-03T06:32:55.092Z,86.474609
2019-04-03T06:33:52.737Z,86.474609
2019-04-03T06:34:53.034Z,86.578369
2019-04-03T06:35:52.874Z,86.682129
2019-04-03T06:36:53.000Z,87.091064
2019-04-03T06:37:53.574Z,87.402344
2019-04-03T06:38:54.219Z,87.402344
2019-04-03T06:39:53.434Z,87.194824
2019-04-03T06:40:53.387Z,87.402344
2019-04-03T06:41:53.509Z,87.402344
2019-04-03T06:42:53.555Z,87.70752
2019-04-03T06:43:54.258Z,87.915039
2019-04-03T06:44:54.099Z,87.915039
2019-04-03T06:45:56.943Z,88.226318
2019-04-03T06:46:54.850Z,88.226318
2019-04-03T06:47:53.788Z,88.330078
2019-04-03T06:48:55.385Z,88.330078
2019-04-03T06:49:54.872Z,88.122559
2019-04-03T06:50:53.936Z,87.915039
2019-04-03T06:51:54.329Z,88.018799
2019-04-03T06:52:54.170Z,88.226318
2019-04-03T06:53:54.082Z,88.122559
2019-04-03T06:54:55.131Z,88.018799
2019-04-03T06:55:54.268Z,87.811279
2019-04-03T06:56:55.272Z,88.122559
2019-04-03T06:57:54.259Z,88.018799
2019-04-03T06:58:54.304Z,88.018799
2019-04-03T06:59:54.369Z,88.122559
2019-04-03T07:00:55.152Z,88.018799
2019-04-03T07:01:54.458Z,88.226318
2019-04-03T07:02:54.522Z,88.330078
2019-04-03T07:03:54.595Z,88.330078
2019-04-03T07:04:55.643Z,88.330078
2019-04-03T07:05:54.670Z,88.427734
2019-04-03T07:06:55.931Z,88.427734
2019-04-03T07:07:55.055Z,88.635254
2019-04-03T07:08:56.037Z,88.739014
2019-04-03T07:09:55.120Z,88.739014
2019-04-03T07:10:56.114Z,88.739014
2019-04-03T07:11:57.325Z,88.946533
2019-04-03T07:12:55.380Z,88.842773
2019-04-03T07:13:55.807Z,88.739014
2019-04-03T07:14:55.599Z,88.635254
2019-04-03T07:15:56.603Z,88.635254
2019-04-03T07:16:55.718Z,88.635254
2019-04-03T07:17:55.802Z,88.531494
2019-04-03T07:18:55.925Z,88.531494
2019-04-03T07:19:57.010Z,88.531494
2019-04-03T07:20:57.204Z,88.427734
2019-04-03T07:21:56.071Z,88.635254
2019-04-03T07:22:56.946Z,89.050293
2019-04-03T07:23:56.146Z,88.946533
2019-04-03T07:24:56.217Z,88.635254
2019-04-03T07:25:56.454Z,88.635254
2019-04-03T07:26:56.320Z,88.330078
2019-04-03T07:27:56.365Z,88.330078
2019-04-03T07:28:57.441Z,88.226318
2019-04-03T07:29:56.512Z,88.330078
2019-04-03T07:30:56.578Z,88.330078
2019-04-03T07:31:56.612Z,88.427734
2019-04-03T07:32:58.043Z,88.427734
2019-04-03T07:33:57.941Z,88.531494
2019-04-03T07:34:56.722Z,88.330078
2019-04-03T07:35:57.918Z,88.122559
2019-04-03T07:36:57.772Z,88.018799
2019-04-03T07:37:56.905Z,87.811279
2019-04-03T07:38:58.419Z,87.70752
2019-04-03T07:39:58.883Z,87.506104
2019-04-03T07:40:57.179Z,87.298584
2019-04-03T07:41:57.308Z,86.987305
2019-04-03T07:42:57.078Z,86.785889
2019-04-03T07:43:58.607Z,86.682129
2019-04-03T07:44:57.166Z,86.578369
2019-04-03T07:45:57.238Z,86.578369
2019-04-03T07:46:57.271Z,86.639404
2019-04-03T07:47:57.313Z,86.743164
2019-04-03T07:48:59.883Z,87.054443
2019-04-03T07:49:58.596Z,87.359619
2019-04-03T07:50:58.446Z,87.774658
2019-04-03T07:51:57.497Z,87.976074
2019-04-03T07:52:57.595Z,88.079834
2019-04-03T07:53:57.617Z,88.183594
2019-04-03T07:54:57.914Z,88.079834
2019-04-03T07:55:57.747Z,87.872314
2019-04-03T07:56:58.167Z,87.567139
2019-04-03T07:57:59.846Z,87.1521
2019-04-03T07:58:57.883Z,87.054443
2019-04-03T07:59:57.968Z,87.255859
2019-04-03T08:00:57.994Z,87.054443
2019-04-03T08:01:59.041Z,87.054443
2019-04-03T08:02:59.174Z,87.1521
2019-04-03T08:03:58.137Z,87.1521
2019-04-03T08:05:00.351Z,86.950684
2019-04-03T08:05:58.248Z,86.950684
2019-04-03T08:06:58.309Z,86.950684
2019-04-03T08:07:58.379Z,86.639404
2019-04-03T08:09:07.174Z,86.022949
2019-04-03T08:09:59.520Z,85.614014
2019-04-03T08:10:59.664Z,85.614014
2019-04-03T08:11:58.745Z,85.81543
2019-04-03T08:12:59.847Z,86.743164
2019-04-03T08:13:58.533Z,86.785889
2019-04-03T08:14:59.595Z,87.402344
2019-04-03T08:15:59.621Z,87.298584
2019-04-03T08:16:58.718Z,87.298584
2019-04-03T08:17:59.031Z,87.402344
2019-04-03T08:18:58.866Z,87.60376
2019-04-03T08:19:58.909Z,87.811279
2019-04-03T08:21:01.178Z,87.872314
2019-04-03T08:22:01.818Z,87.774658
2019-04-03T08:22:59.013Z,87.872314
2019-04-03T08:23:59.268Z,86.639404
2019-04-03T08:24:59.095Z,85.510254
2019-04-03T08:26:00.121Z,85.81543
2019-04-03T08:27:00.157Z,86.126709
2019-04-03T08:27:59.239Z,86.334229
2019-04-03T08:29:01.687Z,86.846924
2019-04-03T08:29:59.346Z,88.079834
2019-04-03T08:30:59.450Z,89.215088
2019-04-03T08:32:00.479Z,89.520264
2019-04-03T08:32:59.537Z,89.727783
2019-04-03T08:34:00.708Z,89.727783
2019-04-03T08:35:03.345Z,89.727783
2019-04-03T08:36:00.601Z,89.727783
2019-04-03T08:37:01.698Z,89.111328
2019-04-03T08:38:00.881Z,89.007568
2019-04-03T08:39:00.652Z,89.007568
2019-04-03T08:39:59.726Z,89.111328
2019-04-03T08:41:02.858Z,89.007568
2019-04-03T08:42:00.075Z,88.800049
2019-04-03T08:43:00.806Z,88.592529
2019-04-03T08:44:00.730Z,88.391113
2019-04-03T08:44:59.923Z,88.183594
2019-04-03T08:45:59.956Z,88.287354
2019-04-03T08:47:00.020Z,88.592529
2019-04-03T08:48:01.021Z,88.592529
2019-04-03T08:49:00.050Z,88.079834
2019-04-03T08:50:02.055Z,88.739014
2019-04-03T08:51:02.183Z,88.946533
2019-04-03T08:52:00.393Z,89.147949
2019-04-03T08:53:01.413Z,89.147949
2019-04-03T08:54:00.245Z,89.050293
2019-04-03T08:55:00.552Z,88.635254
2019-04-03T08:56:01.497Z,88.739014
2019-04-03T08:57:00.403Z,87.957764
2019-04-03T08:58:01.040Z,88.201904
2019-04-03T08:59:00.501Z,89.233398
2019-04-03T09:00:02.062Z,89.746094
2019-04-03T09:01:03.577Z,89.892578
2019-04-03T09:02:00.650Z,90.509033
2019-04-03T09:03:03.581Z,91.131592
2019-04-03T09:04:01.681Z,91.088867
2019-04-03T09:05:01.017Z,91.088867
2019-04-03T09:06:02.008Z,91.296387
2019-04-03T09:07:00.889Z,91.357422
2019-04-03T09:08:00.943Z,91.149902
2019-04-03T09:09:01.221Z,91.107178
2019-04-03T09:10:01.467Z,91.003418
2019-04-03T09:11:02.624Z,90.594482
2019-04-03T09:12:01.286Z,90.032959
2019-04-03T09:13:01.181Z,89.520264
2019-04-03T09:14:02.196Z,89.215088
2019-04-03T09:15:01.316Z,89.624023
2019-04-03T09:16:01.360Z,89.215088
2019-04-03T09:17:02.650Z,89.007568
2019-04-03T09:18:01.751Z,88.964844
2019-04-03T09:19:01.451Z,88.800049
2019-04-03T09:20:01.811Z,88.903809
2019-04-03T09:21:02.601Z,88.964844
2019-04-03T09:22:02.560Z,88.964844
2019-04-03T09:23:01.596Z,88.757324
2019-04-03T09:24:01.661Z,88.861084
2019-04-03T09:25:02.198Z,88.244629
2019-04-03T09:26:03.784Z,87.939453
2019-04-03T09:27:01.938Z,88.037109
2019-04-03T09:28:01.869Z,88.348389
2019-04-03T09:29:01.855Z,88.757324
2019-04-03T09:30:02.947Z,89.129639
2019-04-03T09:31:02.956Z,88.922119
2019-04-03T09:32:01.994Z,88.824463
2019-04-03T09:33:02.042Z,88.305664
2019-04-03T09:34:02.130Z,87.896729
2019-04-03T09:35:02.419Z,87.689209
2019-04-03T09:36:04.290Z,87.487793
2019-04-03T09:37:02.321Z,87.280273
2019-04-03T09:38:02.322Z,87.548828
2019-04-03T09:39:02.578Z,87.548828
2019-04-03T09:40:03.449Z,87.506104
2019-04-03T09:41:03.483Z,87.506104
2019-04-03T09:42:02.583Z,87.463379
2019-04-03T09:43:02.619Z,86.029053
2019-04-03T09:44:02.770Z,86.132812
2019-04-03T09:45:03.019Z,85.925293
2019-04-03T09:46:02.834Z,86.437988
2019-04-03T09:47:03.771Z,86.602783
2019-04-03T09:48:04.603Z,87.322998
2019-04-03T09:49:03.008Z,86.871338
2019-04-03T09:50:03.069Z,87.384033
2019-04-03T09:51:04.296Z,87.384033
2019-04-03T09:52:04.121Z,86.358643
2019-04-03T09:53:03.437Z,86.053467
2019-04-03T09:54:03.230Z,85.296631
2019-04-03T09:55:03.297Z,84.100342
2019-04-03T09:56:03.494Z,83.422852
2019-04-03T09:57:04.827Z,83.935547
2019-04-03T09:58:04.227Z,84.655762
2019-04-03T09:59:04.111Z,83.258057
2019-04-03T10:00:04.510Z,83.563232
2019-04-03T10:01:03.535Z,85.516357
2019-04-03T10:02:04.588Z,87.463379
2019-04-03T10:03:05.658Z,87.115479
2019-04-03T10:04:03.670Z,86.706543
2019-04-03T10:05:03.816Z,85.681152
2019-04-03T10:06:03.913Z,85.888672
2019-04-03T10:07:04.020Z,85.168457
2019-04-03T10:08:04.010Z,85.473633
2019-04-03T10:09:04.225Z,85.784912
2019-04-03T10:10:04.210Z,85.577393
2019-04-03T10:11:05.269Z,85.168457
2019-04-03T10:12:05.457Z,86.029053
2019-04-03T10:13:04.389Z,85.925293
2019-04-03T10:14:04.468Z,85.308838
2019-04-03T10:15:04.557Z,85.205078
2019-04-03T10:16:05.948Z,86.029053
2019-04-03T10:17:06.106Z,85.821533
2019-04-03T10:18:04.707Z,84.118652
2019-04-03T10:19:04.849Z,83.703613
2019-04-03T10:20:05.376Z,84.936523
2019-04-03T10:21:05.884Z,85.351562
2019-04-03T10:22:06.161Z,85.040283
2019-04-03T10:23:04.983Z,84.423828
2019-04-03T10:24:05.380Z,83.746338
2019-04-03T10:25:06.257Z,84.564209
2019-04-03T10:26:07.534Z,85.388184
2019-04-03T10:27:05.223Z,85.552979
2019-04-03T10:28:05.568Z,86.273193
2019-04-03T10:29:05.332Z,86.437988
2019-04-03T10:30:06.432Z,86.334229
2019-04-03T10:31:05.793Z,85.925293
2019-04-03T10:32:05.803Z,85.821533
2019-04-03T10:33:05.680Z,85.821533
2019-04-03T10:34:05.678Z,84.899902
2019-04-03T10:35:07.201Z,85.717773
2019-04-03T10:36:05.781Z,85.620117
2019-04-03T10:37:07.025Z,84.692383
2019-04-03T10:38:05.839Z,84.051514
2019-04-03T10:39:06.926Z,85.595703
2019-04-03T10:40:06.941Z,86.419678
2019-04-03T10:41:06.196Z,86.932373
2019-04-03T10:42:06.069Z,87.036133
2019-04-03T10:43:06.648Z,87.097168
2019-04-03T10:44:06.639Z,86.273193
2019-04-03T10:45:06.259Z,86.273193
2019-04-03T10:46:06.456Z,86.273193
2019-04-03T10:47:07.397Z,87.097168
2019-04-03T10:48:07.421Z,86.846924
2019-04-03T10:49:06.462Z,86.334229
2019-04-03T10:50:06.500Z,85.144043
2019-04-03T10:51:07.012Z,85.552979
2019-04-03T10:52:06.613Z,85.040283
2019-04-03T10:53:06.685Z,85.760498
2019-04-03T10:54:07.713Z,85.760498
2019-04-03T10:55:06.917Z,86.480713
2019-04-03T10:56:06.826Z,87.097168
2019-04-03T10:57:06.882Z,87.298584
2019-04-03T10:58:08.282Z,88.226318
2019-04-03T10:59:11.306Z,87.054443
2019-04-03T11:00:08.093Z,86.334229
2019-04-03T11:01:07.087Z,85.516357
2019-04-03T11:02:07.437Z,84.899902
2019-04-03T11:03:07.379Z,84.838867
2019-04-03T11:04:07.255Z,85.760498
2019-04-03T11:05:07.497Z,86.437988
2019-04-03T11:06:07.387Z,86.846924
2019-04-03T11:07:07.432Z,85.821533
2019-04-03T11:08:07.503Z,85.205078
2019-04-03T11:09:07.666Z,85.412598
2019-04-03T11:10:08.683Z,86.437988
2019-04-03T11:11:07.639Z,86.810303
2019-04-03T11:12:09.504Z,85.473633
2019-04-03T11:13:07.757Z,86.193848
2019-04-03T11:14:08.122Z,86.810303
2019-04-03T11:15:10.418Z,85.986328
2019-04-03T11:16:08.210Z,86.566162
2019-04-03T11:17:08.119Z,84.143066
2019-04-03T11:18:08.446Z,84.246826
2019-04-03T11:19:09.044Z,84.039307
2019-04-03T11:20:09.278Z,84.179688
2019-04-03T11:21:08.128Z,84.588623
2019-04-03T11:22:08.322Z,85.272217
2019-04-03T11:23:08.572Z,85.168457
2019-04-03T11:24:09.300Z,82.910156
2019-04-03T11:25:08.373Z,82.745361
2019-04-03T11:26:08.494Z,83.154297